McCarran International, NV

1:45 AM PDT en Agosto 20, 2014 (GMT -0700)
Enterprise | Change Station
CLOSE
Current Station
Estación meteorológica personal
Location: Las Vegas, NV
Altura: 2338 ft
Estaciones meteorológicas cercanas

Alt 2338 ft 36.05 °N, 115.21 °W | Updated 3 seconds ago

Partly Cloudy
Parcialmente nublado
78.1 ° F
Sensación térmica 79 ° F
N
3.1
Viento Variable Viento desde Este
Gusts 3.1 mph

Hoy
Alta -- | Baja -- ° F
--% Posibilidad de precipitaciones
Ayer
Alta -- | Baja -- ° F
Precip. -- pul
6:02 AM 7:24 PM
Creciente menguante, 23% visible
Presión 29.73 pul
Visibilidad 10.0 Millas
Nubes Baja 20000 ft
Índice de calor 79 ° F
Punto de rocío 57 ° F
Humedad 48%
Precipitaciones 0.00 pul
Espesor de la nieve No disponible.
UV 0 de una escala de 12
Polen 5.70 de una escala de 12
Ozono Buena
PM2.5 Buena
Flu Activity No disponible.
METAR KLAS 200756Z 14003KT 10SM FEW200 27/12 A2980 RMK AO2 SLP065 T02670117 403330250

More Conditions Fewer Conditions

Presión 29.73 pul
Visibilidad 10.0 Millas
Nubes Baja 20000 ft
Índice de calor 79 ° F
Punto de rocío 57 ° F
Humedad 48%
Precipitaciones 0.00 pul
Espesor de la nieve No disponible.
UV 0 de una escala de 12
Polen 5.70 de una escala de 12
Ozono Buena
PM2.5 Buena
Flu Activity No disponible.
METAR KLAS 200756Z 14003KT 10SM FEW200 27/12 A2980 RMK AO2 SLP065 T02670117 403330250

More Conditions Fewer Conditions

10-Day Weather Forecast

Almanac

Astronomía

Aug. 20, 2014 Salida Puesta
Hora real 6:02 AM PDT 7:24 PM PDT
Crepúsculo civil 5:36 AM PDT 7:51 PM PDT
Crepúsculo náutico 5:03 AM PDT 8:23 PM PDT
Crepúsculo astronómico 4:30 AM PDT 8:56 PM PDT
Luna 1:49 AM PDT 4:09 PM PDT
Horas de luz 14h 15m
Horas de luz
13h 21m
Tomorrow will be 2m 4s shorter.
Creciente menguante, 23% of the Moon is Illuminated
Hoy
Creciente menguante
Ago 25
Nueva
Sep 2
Cuarto creciente
Sep 8
Luna llena
Sep 15
Cuarto menguante

Extremos de hoy

Máximos del estado Bajos del estado

Community

WunderPhotos

Upload Photos

1,745,600 ¡fotos cargadas!

Nearby

Calidad del aire

  Calidad del aire Índice AQ Contaminante
Ayer Buena
OZONE
Ayer Buena
PM10
Real Buena
PM2.5
Real Buena
OZONE
Miércoles Buena
PM10
Miércoles Buena
OZONE
Jueves Buena
PM10
Jueves Buena
OZONE
Viernes Buena
PM10
Viernes Buena
OZONE
Sábado Buena
PM10
Sábado Buena
OZONE
Domingo Buena
PM10
Domingo Buena
OZONE

Grosos de nieve

Estación Profundido Altura
Ward Mountain 0 in 9200 ft
Diamond Peak 1 in 8000 ft
Big Creek Summit 0 in 8700 ft
Corral Canyon 0 in 8500 ft
Green Mountain 0 in 8000 ft

Actividad de terremotos

Ciudad Distance Mag. Tiempo y dato
Yucca Valley, California 142 Millas 3.8 8:57 PM PDT
2014-08-14
Magnitud mínima muestra es 2,5.

Temperaturas de aguas costeras

Lugar Temperatura
Sin partes meteorológicos de las estaciones

Estaciones meteorológicas cercanas